sensor_id;sensor_type;location;lat;lon;timestamp;temperature;humidity
64855;DHT22;51321;50.428;8.378;2023-04-25T00:02:32;9.20;99.90
64855;DHT22;51321;50.428;8.378;2023-04-25T00:05:16;9.20;99.90
64855;DHT22;51321;50.428;8.378;2023-04-25T00:07:56;9.30;99.90
64855;DHT22;51321;50.428;8.378;2023-04-25T00:10:37;9.30;99.90
64855;DHT22;51321;50.428;8.378;2023-04-25T00:13:18;9.40;99.90
64855;DHT22;51321;50.428;8.378;2023-04-25T00:16:01;9.30;99.90
64855;DHT22;51321;50.428;8.378;2023-04-25T00:18:41;9.30;99.90
64855;DHT22;51321;50.428;8.378;2023-04-25T00:21:24;9.40;99.90
64855;DHT22;51321;50.428;8.378;2023-04-25T00:24:05;9.20;99.90
64855;DHT22;51321;50.428;8.378;2023-04-25T00:26:46;9.20;99.90
64855;DHT22;51321;50.428;8.378;2023-04-25T00:29:27;9.20;99.90
64855;DHT22;51321;50.428;8.378;2023-04-25T00:32:07;9.10;99.90
64855;DHT22;51321;50.428;8.378;2023-04-25T00:34:49;9.00;99.90
64855;DHT22;51321;50.428;8.378;2023-04-25T00:37:31;9.10;99.90
64855;DHT22;51321;50.428;8.378;2023-04-25T00:40:11;9.00;99.90
64855;DHT22;51321;50.428;8.378;2023-04-25T00:42:53;8.90;99.90
64855;DHT22;51321;50.428;8.378;2023-04-25T00:45:35;8.90;99.90
64855;DHT22;51321;50.428;8.378;2023-04-25T00:48:19;9.00;99.90
64855;DHT22;51321;50.428;8.378;2023-04-25T00:51:00;8.90;99.90
64855;DHT22;51321;50.428;8.378;2023-04-25T00:53:43;8.80;99.90
64855;DHT22;51321;50.428;8.378;2023-04-25T00:56:24;8.80;99.90
64855;DHT22;51321;50.428;8.378;2023-04-25T00:59:05;8.70;99.90
64855;DHT22;51321;50.428;8.378;2023-04-25T01:01:47;8.70;99.90
64855;DHT22;51321;50.428;8.378;2023-04-25T01:04:29;8.70;99.90
64855;DHT22;51321;50.428;8.378;2023-04-25T01:07:09;8.60;99.90
64855;DHT22;51321;50.428;8.378;2023-04-25T01:09:52;8.60;99.90
64855;DHT22;51321;50.428;8.378;2023-04-25T01:12:33;8.50;99.90
64855;DHT22;51321;50.428;8.378;2023-04-25T01:15:14;8.40;99.90
64855;DHT22;51321;50.428;8.378;2023-04-25T01:17:55;8.30;99.90
64855;DHT22;51321;50.428;8.378;2023-04-25T01:20:37;8.20;99.90
64855;DHT22;51321;50.428;8.378;2023-04-25T01:23:20;8.10;99.90
64855;DHT22;51321;50.428;8.378;2023-04-25T01:26:01;8.00;99.90
64855;DHT22;51321;50.428;8.378;2023-04-25T01:28:42;7.80;99.90
64855;DHT22;51321;50.428;8.378;2023-04-25T01:31:24;7.80;99.90
64855;DHT22;51321;50.428;8.378;2023-04-25T01:34:05;7.70;99.90
64855;DHT22;51321;50.428;8.378;2023-04-25T01:36:47;7.60;99.90
64855;DHT22;51321;50.428;8.378;2023-04-25T01:39:30;7.50;99.90
64855;DHT22;51321;50.428;8.378;2023-04-25T01:42:12;7.50;99.90
64855;DHT22;51321;50.428;8.378;2023-04-25T01:44:52;7.50;99.90
64855;DHT22;51321;50.428;8.378;2023-04-25T01:47:33;7.40;99.90
64855;DHT22;51321;50.428;8.378;2023-04-25T01:50:15;7.30;99.90
64855;DHT22;51321;50.428;8.378;2023-04-25T01:52:56;7.40;99.90
64855;DHT22;51321;50.428;8.378;2023-04-25T01:55:38;7.40;99.90
64855;DHT22;51321;50.428;8.378;2023-04-25T01:58:23;7.30;99.90
64855;DHT22;51321;50.428;8.378;2023-04-25T02:01:13;7.30;99.90
64855;DHT22;51321;50.428;8.378;2023-04-25T02:04:00;7.30;99.90
64855;DHT22;51321;50.428;8.378;2023-04-25T02:06:47;7.20;99.90
64855;DHT22;51321;50.428;8.378;2023-04-25T02:09:28;7.20;99.90
64855;DHT22;51321;50.428;8.378;2023-04-25T02:12:12;7.20;99.90
64855;DHT22;51321;50.428;8.378;2023-04-25T02:15:13;7.30;99.90
64855;DHT22;51321;50.428;8.378;2023-04-25T02:17:57;7.00;99.90
64855;DHT22;51321;50.428;8.378;2023-04-25T02:20:39;6.80;99.90
64855;DHT22;51321;50.428;8.378;2023-04-25T02:23:19;6.70;99.90
64855;DHT22;51321;50.428;8.378;2023-04-25T02:26:00;6.60;99.90
64855;DHT22;51321;50.428;8.378;2023-04-25T02:28:42;6.60;99.90
64855;DHT22;51321;50.428;8.378;2023-04-25T02:31:22;6.70;99.90
64855;DHT22;51321;50.428;8.378;2023-04-25T02:34:04;6.70;99.90
64855;DHT22;51321;50.428;8.378;2023-04-25T02:36:48;6.60;99.90
64855;DHT22;51321;50.428;8.378;2023-04-25T02:39:30;6.40;99.90
64855;DHT22;51321;50.428;8.378;2023-04-25T02:42:11;6.40;99.90
64855;DHT22;51321;50.428;8.378;2023-04-25T02:44:53;6.40;99.90
64855;DHT22;51321;50.428;8.378;2023-04-25T02:47:33;6.30;99.90
64855;DHT22;51321;50.428;8.378;2023-04-25T02:50:14;6.10;99.90
64855;DHT22;51321;50.428;8.378;2023-04-25T02:52:54;6.20;99.90
64855;DHT22;51321;50.428;8.378;2023-04-25T02:55:40;6.20;99.90
64855;DHT22;51321;50.428;8.378;2023-04-25T02:58:20;6.10;99.90
64855;DHT22;51321;50.428;8.378;2023-04-25T03:01:05;6.00;99.90
64855;DHT22;51321;50.428;8.378;2023-04-25T03:03:46;6.10;99.90
64855;DHT22;51321;50.428;8.378;2023-04-25T03:06:26;6.10;99.90
64855;DHT22;51321;50.428;8.378;2023-04-25T03:09:06;6.00;99.90
64855;DHT22;51321;50.428;8.378;2023-04-25T03:11:47;5.90;99.90
64855;DHT22;51321;50.428;8.378;2023-04-25T03:14:28;5.70;99.90
64855;DHT22;51321;50.428;8.378;2023-04-25T03:17:10;5.60;99.90
64855;DHT22;51321;50.428;8.378;2023-04-25T03:19:50;5.70;99.90
64855;DHT22;51321;50.428;8.378;2023-04-25T03:22:30;5.60;99.90
64855;DHT22;51321;50.428;8.378;2023-04-25T03:25:11;5.70;99.90
64855;DHT22;51321;50.428;8.378;2023-04-25T03:27:51;5.70;99.90
64855;DHT22;51321;50.428;8.378;2023-04-25T03:30:32;5.70;99.90
64855;DHT22;51321;50.428;8.378;2023-04-25T03:33:14;5.70;99.90
64855;DHT22;51321;50.428;8.378;2023-04-25T03:35:55;5.60;99.90
64855;DHT22;51321;50.428;8.378;2023-04-25T03:38:36;5.60;99.90
64855;DHT22;51321;50.428;8.378;2023-04-25T03:41:18;5.50;99.90
64855;DHT22;51321;50.428;8.378;2023-04-25T03:44:06;5.60;99.90
64855;DHT22;51321;50.428;8.378;2023-04-25T03:46:47;5.50;99.90
64855;DHT22;51321;50.428;8.378;2023-04-25T03:49:29;5.60;99.90
64855;DHT22;51321;50.428;8.378;2023-04-25T03:52:13;5.60;99.90
64855;DHT22;51321;50.428;8.378;2023-04-25T03:54:53;5.60;99.90
64855;DHT22;51321;50.428;8.378;2023-04-25T03:57:37;5.70;99.90
64855;DHT22;51321;50.428;8.378;2023-04-25T04:00:17;5.50;99.90
64855;DHT22;51321;50.428;8.378;2023-04-25T04:02:58;5.50;99.90
64855;DHT22;51321;50.428;8.378;2023-04-25T04:05:40;5.50;99.90
64855;DHT22;51321;50.428;8.378;2023-04-25T04:08:21;5.50;99.90
64855;DHT22;51321;50.428;8.378;2023-04-25T04:11:02;5.60;99.90
64855;DHT22;51321;50.428;8.378;2023-04-25T04:13:43;5.50;99.90
64855;DHT22;51321;50.428;8.378;2023-04-25T04:16:23;5.30;99.90
64855;DHT22;51321;50.428;8.378;2023-04-25T04:19:03;5.30;99.90
64855;DHT22;51321;50.428;8.378;2023-04-25T04:21:46;5.20;99.90
64855;DHT22;51321;50.428;8.378;2023-04-25T04:24:27;5.30;99.90
64855;DHT22;51321;50.428;8.378;2023-04-25T04:27:13;5.30;99.90
64855;DHT22;51321;50.428;8.378;2023-04-25T04:30:14;5.20;99.90
64855;DHT22;51321;50.428;8.378;2023-04-25T04:33:09;5.10;99.90
64855;DHT22;51321;50.428;8.378;2023-04-25T04:35:51;5.10;99.90
64855;DHT22;51321;50.428;8.378;2023-04-25T04:38:34;5.10;99.90
64855;DHT22;51321;50.428;8.378;2023-04-25T04:41:17;5.10;99.90
64855;DHT22;51321;50.428;8.378;2023-04-25T04:44:19;5.20;99.90
64855;DHT22;51321;50.428;8.378;2023-04-25T04:47:26;5.20;99.90
64855;DHT22;51321;50.428;8.378;2023-04-25T04:50:37;5.20;99.90
64855;DHT22;51321;50.428;8.378;2023-04-25T04:53:30;5.20;99.90
64855;DHT22;51321;50.428;8.378;2023-04-25T04:56:35;5.30;99.90
64855;DHT22;51321;50.428;8.378;2023-04-25T04:59:38;5.50;99.90
64855;DHT22;51321;50.428;8.378;2023-04-25T05:02:35;5.50;99.90
64855;DHT22;51321;50.428;8.378;2023-04-25T05:05:28;5.80;99.90
64855;DHT22;51321;50.428;8.378;2023-04-25T05:08:25;5.70;99.90
64855;DHT22;51321;50.428;8.378;2023-04-25T05:11:16;5.70;99.90
64855;DHT22;51321;50.428;8.378;2023-04-25T05:14:27;5.60;99.90
64855;DHT22;51321;50.428;8.378;2023-04-25T05:17:29;5.60;99.90
64855;DHT22;51321;50.428;8.378;2023-04-25T05:20:13;5.50;99.90
64855;DHT22;51321;50.428;8.378;2023-04-25T05:23:13;5.60;99.90
64855;DHT22;51321;50.428;8.378;2023-04-25T05:26:06;5.70;99.90
64855;DHT22;51321;50.428;8.378;2023-04-25T05:29:13;5.80;99.90
64855;DHT22;51321;50.428;8.378;2023-04-25T05:32:13;6.00;99.90
64855;DHT22;51321;50.428;8.378;2023-04-25T05:34:54;6.40;99.90
64855;DHT22;51321;50.428;8.378;2023-04-25T05:37:57;6.90;99.90
64855;DHT22;51321;50.428;8.378;2023-04-25T05:40:52;7.00;99.90
64855;DHT22;51321;50.428;8.378;2023-04-25T05:43:51;7.20;99.90
64855;DHT22;51321;50.428;8.378;2023-04-25T05:46:42;7.30;99.90
64855;DHT22;51321;50.428;8.378;2023-04-25T05:50:03;7.30;99.90
64855;DHT22;51321;50.428;8.378;2023-04-25T05:53:08;7.40;99.90
64855;DHT22;51321;50.428;8.378;2023-04-25T05:55:52;7.30;99.90
64855;DHT22;51321;50.428;8.378;2023-04-25T05:58:38;7.30;99.90
64855;DHT22;51321;50.428;8.378;2023-04-25T06:01:19;7.30;99.90
64855;DHT22;51321;50.428;8.378;2023-04-25T06:04:00;7.30;99.90
64855;DHT22;51321;50.428;8.378;2023-04-25T06:06:42;7.20;99.90
64855;DHT22;51321;50.428;8.378;2023-04-25T06:09:23;7.30;99.90
64855;DHT22;51321;50.428;8.378;2023-04-25T06:12:06;7.40;99.90
64855;DHT22;51321;50.428;8.378;2023-04-25T06:14:47;7.40;99.90
64855;DHT22;51321;50.428;8.378;2023-04-25T06:17:27;7.70;99.90
64855;DHT22;51321;50.428;8.378;2023-04-25T06:20:08;7.90;99.90
64855;DHT22;51321;50.428;8.378;2023-04-25T06:22:50;8.10;99.90
64855;DHT22;51321;50.428;8.378;2023-04-25T06:25:32;8.40;99.90
64855;DHT22;51321;50.428;8.378;2023-04-25T06:28:12;8.60;99.90
64855;DHT22;51321;50.428;8.378;2023-04-25T06:30:54;8.80;99.90
64855;DHT22;51321;50.428;8.378;2023-04-25T06:33:35;8.90;99.90
64855;DHT22;51321;50.428;8.378;2023-04-25T06:36:16;9.00;99.90
64855;DHT22;51321;50.428;8.378;2023-04-25T06:39:02;9.20;99.90
64855;DHT22;51321;50.428;8.378;2023-04-25T06:41:42;9.40;99.90
64855;DHT22;51321;50.428;8.378;2023-04-25T06:44:42;9.50;99.90
64855;DHT22;51321;50.428;8.378;2023-04-25T06:47:25;9.50;99.90
64855;DHT22;51321;50.428;8.378;2023-04-25T06:50:05;9.30;99.90
64855;DHT22;51321;50.428;8.378;2023-04-25T06:52:47;9.30;99.90
64855;DHT22;51321;50.428;8.378;2023-04-25T06:55:29;9.40;99.90
64855;DHT22;51321;50.428;8.378;2023-04-25T06:58:25;9.40;99.90
64855;DHT22;51321;50.428;8.378;2023-04-25T07:01:25;9.40;99.90
64855;DHT22;51321;50.428;8.378;2023-04-25T07:04:05;9.40;99.90
64855;DHT22;51321;50.428;8.378;2023-04-25T07:06:48;9.30;99.90
64855;DHT22;51321;50.428;8.378;2023-04-25T07:09:32;9.20;99.90
64855;DHT22;51321;50.428;8.378;2023-04-25T07:12:14;9.20;99.90
64855;DHT22;51321;50.428;8.378;2023-04-25T07:14:56;9.30;99.90
64855;DHT22;51321;50.428;8.378;2023-04-25T07:17:37;9.30;99.90
64855;DHT22;51321;50.428;8.378;2023-04-25T07:20:17;9.40;99.90
64855;DHT22;51321;50.428;8.378;2023-04-25T07:22:58;9.50;99.90
64855;DHT22;51321;50.428;8.378;2023-04-25T07:25:39;9.60;99.90
64855;DHT22;51321;50.428;8.378;2023-04-25T07:28:21;9.70;99.90
64855;DHT22;51321;50.428;8.378;2023-04-25T07:31:02;9.90;99.90
64855;DHT22;51321;50.428;8.378;2023-04-25T07:33:44;10.10;99.90
64855;DHT22;51321;50.428;8.378;2023-04-25T07:36:25;10.10;99.90
64855;DHT22;51321;50.428;8.378;2023-04-25T07:39:06;10.30;99.90
64855;DHT22;51321;50.428;8.378;2023-04-25T07:41:48;10.50;99.90
64855;DHT22;51321;50.428;8.378;2023-04-25T07:44:36;10.60;99.90
64855;DHT22;51321;50.428;8.378;2023-04-25T07:47:18;10.70;99.90
64855;DHT22;51321;50.428;8.378;2023-04-25T07:49:59;10.80;99.90
64855;DHT22;51321;50.428;8.378;2023-04-25T07:52:40;11.00;99.90
64855;DHT22;51321;50.428;8.378;2023-04-25T07:55:33;10.90;99.90
64855;DHT22;51321;50.428;8.378;2023-04-25T07:58:27;10.90;99.90
64855;DHT22;51321;50.428;8.378;2023-04-25T08:01:12;11.00;99.90
64855;DHT22;51321;50.428;8.378;2023-04-25T08:04:01;11.10;99.90
64855;DHT22;51321;50.428;8.378;2023-04-25T08:07:04;11.00;99.90
64855;DHT22;51321;50.428;8.378;2023-04-25T08:09:53;11.10;99.90
64855;DHT22;51321;50.428;8.378;2023-04-25T08:12:44;11.00;99.90
64855;DHT22;51321;50.428;8.378;2023-04-25T08:15:25;10.90;99.90
64855;DHT22;51321;50.428;8.378;2023-04-25T08:18:07;10.80;99.90
64855;DHT22;51321;50.428;8.378;2023-04-25T08:20:48;10.90;99.90
64855;DHT22;51321;50.428;8.378;2023-04-25T08:23:29;10.80;99.90
64855;DHT22;51321;50.428;8.378;2023-04-25T08:26:19;10.80;99.90
64855;DHT22;51321;50.428;8.378;2023-04-25T08:29:00;11.10;99.90
64855;DHT22;51321;50.428;8.378;2023-04-25T08:31:41;11.40;99.90
64855;DHT22;51321;50.428;8.378;2023-04-25T08:34:23;11.90;99.90
64855;DHT22;51321;50.428;8.378;2023-04-25T08:37:05;12.20;99.90
64855;DHT22;51321;50.428;8.378;2023-04-25T08:40:06;12.60;99.90
64855;DHT22;51321;50.428;8.378;2023-04-25T08:43:10;12.50;99.40
64855;DHT22;51321;50.428;8.378;2023-04-25T08:45:53;12.60;99.10
64855;DHT22;51321;50.428;8.378;2023-04-25T08:48:44;12.30;98.70
64855;DHT22;51321;50.428;8.378;2023-04-25T08:51:26;12.20;99.70
64855;DHT22;51321;50.428;8.378;2023-04-25T08:54:08;12.10;99.90
64855;DHT22;51321;50.428;8.378;2023-04-25T08:56:49;12.20;99.30
64855;DHT22;51321;50.428;8.378;2023-04-25T08:59:30;12.30;99.90
64855;DHT22;51321;50.428;8.378;2023-04-25T09:02:11;12.30;99.50
64855;DHT22;51321;50.428;8.378;2023-04-25T09:04:54;12.10;99.70
64855;DHT22;51321;50.428;8.378;2023-04-25T09:07:37;12.20;99.20
64855;DHT22;51321;50.428;8.378;2023-04-25T09:10:18;12.20;99.90
64855;DHT22;51321;50.428;8.378;2023-04-25T09:13:03;12.00;99.20
64855;DHT22;51321;50.428;8.378;2023-04-25T09:15:48;11.50;99.90
64855;DHT22;51321;50.428;8.378;2023-04-25T09:18:49;11.30;99.90
64855;DHT22;51321;50.428;8.378;2023-04-25T09:21:30;10.40;99.90
64855;DHT22;51321;50.428;8.378;2023-04-25T09:24:11;9.50;99.90
64855;DHT22;51321;50.428;8.378;2023-04-25T09:26:53;9.40;99.90
64855;DHT22;51321;50.428;8.378;2023-04-25T09:29:34;9.40;99.90
64855;DHT22;51321;50.428;8.378;2023-04-25T09:32:17;9.60;99.90
64855;DHT22;51321;50.428;8.378;2023-04-25T09:34:59;9.90;99.90
64855;DHT22;51321;50.428;8.378;2023-04-25T09:37:41;10.50;99.90
64855;DHT22;51321;50.428;8.378;2023-04-25T09:40:43;10.90;99.90
64855;DHT22;51321;50.428;8.378;2023-04-25T09:43:31;11.30;99.90
64855;DHT22;51321;50.428;8.378;2023-04-25T09:46:11;11.50;99.90
64855;DHT22;51321;50.428;8.378;2023-04-25T09:49:05;11.40;99.90
64855;DHT22;51321;50.428;8.378;2023-04-25T09:51:53;11.60;99.90
64855;DHT22;51321;50.428;8.378;2023-04-25T09:54:34;12.10;99.90
64855;DHT22;51321;50.428;8.378;2023-04-25T09:57:25;12.70;99.90
64855;DHT22;51321;50.428;8.378;2023-04-25T10:00:09;12.80;99.20
64855;DHT22;51321;50.428;8.378;2023-04-25T10:02:54;12.60;98.10
64855;DHT22;51321;50.428;8.378;2023-04-25T10:06:00;12.60;99.40
64855;DHT22;51321;50.428;8.378;2023-04-25T10:08:41;12.60;97.50
64855;DHT22;51321;50.428;8.378;2023-04-25T10:11:24;12.70;99.50
64855;DHT22;51321;50.428;8.378;2023-04-25T10:14:06;12.70;98.10
64855;DHT22;51321;50.428;8.378;2023-04-25T10:16:46;12.50;95.10
64855;DHT22;51321;50.428;8.378;2023-04-25T10:19:27;12.30;92.70
64855;DHT22;51321;50.428;8.378;2023-04-25T10:22:12;12.30;93.60
64855;DHT22;51321;50.428;8.378;2023-04-25T10:24:54;12.40;92.50
64855;DHT22;51321;50.428;8.378;2023-04-25T10:27:36;12.50;93.70
64855;DHT22;51321;50.428;8.378;2023-04-25T10:30:18;12.50;92.60
64855;DHT22;51321;50.428;8.378;2023-04-25T10:32:59;12.40;92.80
64855;DHT22;51321;50.428;8.378;2023-04-25T10:35:39;12.30;93.00
64855;DHT22;51321;50.428;8.378;2023-04-25T10:38:20;12.20;94.20
64855;DHT22;51321;50.428;8.378;2023-04-25T10:41:04;12.20;93.30
64855;DHT22;51321;50.428;8.378;2023-04-25T10:43:47;12.20;94.50
64855;DHT22;51321;50.428;8.378;2023-04-25T10:46:30;12.10;94.00
64855;DHT22;51321;50.428;8.378;2023-04-25T10:49:31;12.30;93.60
64855;DHT22;51321;50.428;8.378;2023-04-25T10:52:12;12.20;93.00
64855;DHT22;51321;50.428;8.378;2023-04-25T10:54:53;12.50;93.70
64855;DHT22;51321;50.428;8.378;2023-04-25T10:57:37;12.90;93.60
64855;DHT22;51321;50.428;8.378;2023-04-25T11:00:18;13.30;92.70
64855;DHT22;51321;50.428;8.378;2023-04-25T11:03:01;13.50;93.30
64855;DHT22;51321;50.428;8.378;2023-04-25T11:05:42;13.40;92.60
64855;DHT22;51321;50.428;8.378;2023-04-25T11:08:24;13.40;92.10
64855;DHT22;51321;50.428;8.378;2023-04-25T11:11:09;13.00;92.70
64855;DHT22;51321;50.428;8.378;2023-04-25T11:13:50;12.60;94.70
64855;DHT22;51321;50.428;8.378;2023-04-25T11:16:30;12.10;94.20
64855;DHT22;51321;50.428;8.378;2023-04-25T11:19:12;11.80;95.20
64855;DHT22;51321;50.428;8.378;2023-04-25T11:21:54;11.60;95.10
64855;DHT22;51321;50.428;8.378;2023-04-25T11:24:35;11.50;96.30
64855;DHT22;51321;50.428;8.378;2023-04-25T11:27:16;11.40;95.20
64855;DHT22;51321;50.428;8.378;2023-04-25T11:29:56;11.40;96.60
64855;DHT22;51321;50.428;8.378;2023-04-25T11:32:38;11.30;98.40
64855;DHT22;51321;50.428;8.378;2023-04-25T11:35:20;11.30;97.30
64855;DHT22;51321;50.428;8.378;2023-04-25T11:38:01;11.30;96.30
64855;DHT22;51321;50.428;8.378;2023-04-25T11:40:42;11.40;96.10
64855;DHT22;51321;50.428;8.378;2023-04-25T11:43:22;11.60;95.80
64855;DHT22;51321;50.428;8.378;2023-04-25T11:46:06;11.80;95.20
64855;DHT22;51321;50.428;8.378;2023-04-25T11:48:46;11.90;95.70
64855;DHT22;51321;50.428;8.378;2023-04-25T11:51:28;12.30;94.70
64855;DHT22;51321;50.428;8.378;2023-04-25T11:54:09;12.50;94.30
64855;DHT22;51321;50.428;8.378;2023-04-25T11:56:50;12.40;94.30
64855;DHT22;51321;50.428;8.378;2023-04-25T11:59:31;12.40;93.40
64855;DHT22;51321;50.428;8.378;2023-04-25T12:02:23;12.80;93.70
64855;DHT22;51321;50.428;8.378;2023-04-25T12:05:06;13.40;92.90
64855;DHT22;51321;50.428;8.378;2023-04-25T12:07:48;13.50;91.80
64855;DHT22;51321;50.428;8.378;2023-04-25T12:10:29;13.40;90.30
64855;DHT22;51321;50.428;8.378;2023-04-25T12:13:19;13.70;90.60
64855;DHT22;51321;50.428;8.378;2023-04-25T12:16:00;13.60;90.30
64855;DHT22;51321;50.428;8.378;2023-04-25T12:18:41;13.40;90.70
64855;DHT22;51321;50.428;8.378;2023-04-25T12:21:21;13.20;90.70
64855;DHT22;51321;50.428;8.378;2023-04-25T12:24:14;13.60;91.00
64855;DHT22;51321;50.428;8.378;2023-04-25T12:26:58;14.10;90.30
64855;DHT22;51321;50.428;8.378;2023-04-25T12:29:39;14.60;88.70
64855;DHT22;51321;50.428;8.378;2023-04-25T12:32:30;14.80;85.20
64855;DHT22;51321;50.428;8.378;2023-04-25T12:35:10;14.20;82.90
64855;DHT22;51321;50.428;8.378;2023-04-25T12:37:50;13.40;85.70
64855;DHT22;51321;50.428;8.378;2023-04-25T12:40:33;13.20;88.20
64855;DHT22;51321;50.428;8.378;2023-04-25T12:43:13;13.10;88.30
64855;DHT22;51321;50.428;8.378;2023-04-25T12:45:54;12.90;89.30
64855;DHT22;51321;50.428;8.378;2023-04-25T12:48:35;12.80;88.90
64855;DHT22;51321;50.428;8.378;2023-04-25T12:51:17;12.80;89.10
64855;DHT22;51321;50.428;8.378;2023-04-25T12:53:58;13.00;90.00
64855;DHT22;51321;50.428;8.378;2023-04-25T12:56:40;13.30;90.00
64855;DHT22;51321;50.428;8.378;2023-04-25T12:59:20;13.40;86.10
64855;DHT22;51321;50.428;8.378;2023-04-25T13:02:01;13.50;84.40
64855;DHT22;51321;50.428;8.378;2023-04-25T13:04:42;13.60;88.70
64855;DHT22;51321;50.428;8.378;2023-04-25T13:07:22;13.60;87.20
64855;DHT22;51321;50.428;8.378;2023-04-25T13:10:03;13.70;85.40
64855;DHT22;51321;50.428;8.378;2023-04-25T13:12:45;13.70;84.50
64855;DHT22;51321;50.428;8.378;2023-04-25T13:15:26;13.50;81.20
64855;DHT22;51321;50.428;8.378;2023-04-25T13:18:06;13.90;82.00
64855;DHT22;51321;50.428;8.378;2023-04-25T13:20:47;14.10;80.20
64855;DHT22;51321;50.428;8.378;2023-04-25T13:23:28;14.30;80.40
64855;DHT22;51321;50.428;8.378;2023-04-25T13:26:08;14.10;76.80
64855;DHT22;51321;50.428;8.378;2023-04-25T13:28:50;14.30;78.90
64855;DHT22;51321;50.428;8.378;2023-04-25T13:31:31;14.50;78.10
64855;DHT22;51321;50.428;8.378;2023-04-25T13:34:12;14.40;78.30
64855;DHT22;51321;50.428;8.378;2023-04-25T13:36:52;14.30;78.20
64855;DHT22;51321;50.428;8.378;2023-04-25T13:39:33;13.90;79.10
64855;DHT22;51321;50.428;8.378;2023-04-25T13:42:13;13.50;80.20
64855;DHT22;51321;50.428;8.378;2023-04-25T13:44:56;13.30;81.70
64855;DHT22;51321;50.428;8.378;2023-04-25T13:47:36;13.00;83.30
64855;DHT22;51321;50.428;8.378;2023-04-25T13:50:17;12.80;85.30
64855;DHT22;51321;50.428;8.378;2023-04-25T13:52:57;12.80;86.00
64855;DHT22;51321;50.428;8.378;2023-04-25T13:55:37;12.70;86.00
64855;DHT22;51321;50.428;8.378;2023-04-25T13:58:18;12.60;87.20
64855;DHT22;51321;50.428;8.378;2023-04-25T14:01:00;12.60;85.90
64855;DHT22;51321;50.428;8.378;2023-04-25T14:03:41;12.60;85.60
64855;DHT22;51321;50.428;8.378;2023-04-25T14:06:21;12.50;80.20
64855;DHT22;51321;50.428;8.378;2023-04-25T14:09:03;12.60;83.50
64855;DHT22;51321;50.428;8.378;2023-04-25T14:11:45;12.50;84.60
64855;DHT22;51321;50.428;8.378;2023-04-25T14:14:26;12.60;84.30
64855;DHT22;51321;50.428;8.378;2023-04-25T14:17:08;12.70;86.60
64855;DHT22;51321;50.428;8.378;2023-04-25T14:19:49;12.90;86.90
64855;DHT22;51321;50.428;8.378;2023-04-25T14:22:29;13.10;83.00
64855;DHT22;51321;50.428;8.378;2023-04-25T14:25:10;13.20;84.40
64855;DHT22;51321;50.428;8.378;2023-04-25T14:27:50;13.50;81.30
64855;DHT22;51321;50.428;8.378;2023-04-25T14:30:31;13.40;83.00
64855;DHT22;51321;50.428;8.378;2023-04-25T14:33:12;13.60;83.30
64855;DHT22;51321;50.428;8.378;2023-04-25T14:35:53;13.80;82.20
64855;DHT22;51321;50.428;8.378;2023-04-25T14:38:34;14.10;81.40
64855;DHT22;51321;50.428;8.378;2023-04-25T14:41:14;14.10;81.70
64855;DHT22;51321;50.428;8.378;2023-04-25T14:43:55;13.80;83.00
64855;DHT22;51321;50.428;8.378;2023-04-25T14:46:36;13.60;83.50
64855;DHT22;51321;50.428;8.378;2023-04-25T14:49:18;13.40;85.50
64855;DHT22;51321;50.428;8.378;2023-04-25T14:51:59;13.30;83.10
64855;DHT22;51321;50.428;8.378;2023-04-25T14:54:40;13.20;82.50
64855;DHT22;51321;50.428;8.378;2023-04-25T14:57:20;13.20;83.20
64855;DHT22;51321;50.428;8.378;2023-04-25T15:00:01;13.20;81.40
64855;DHT22;51321;50.428;8.378;2023-04-25T15:02:43;13.40;84.20
64855;DHT22;51321;50.428;8.378;2023-04-25T15:05:26;13.10;85.20
64855;DHT22;51321;50.428;8.378;2023-04-25T15:08:07;13.00;82.30
64855;DHT22;51321;50.428;8.378;2023-04-25T15:10:47;12.80;84.80
64855;DHT22;51321;50.428;8.378;2023-04-25T15:13:28;12.60;83.50
64855;DHT22;51321;50.428;8.378;2023-04-25T15:16:09;12.40;84.00
64855;DHT22;51321;50.428;8.378;2023-04-25T15:18:50;12.10;86.10
64855;DHT22;51321;50.428;8.378;2023-04-25T15:21:32;12.00;87.40
64855;DHT22;51321;50.428;8.378;2023-04-25T15:24:12;11.80;87.30
64855;DHT22;51321;50.428;8.378;2023-04-25T15:26:53;11.80;87.10
64855;DHT22;51321;50.428;8.378;2023-04-25T15:29:34;11.70;86.70
64855;DHT22;51321;50.428;8.378;2023-04-25T15:32:15;11.50;87.10
64855;DHT22;51321;50.428;8.378;2023-04-25T15:34:55;11.50;88.10
64855;DHT22;51321;50.428;8.378;2023-04-25T15:37:37;11.40;86.20
64855;DHT22;51321;50.428;8.378;2023-04-25T15:40:18;11.30;87.10
64855;DHT22;51321;50.428;8.378;2023-04-25T15:42:58;11.20;85.80
64855;DHT22;51321;50.428;8.378;2023-04-25T15:45:38;11.00;86.10
64855;DHT22;51321;50.428;8.378;2023-04-25T15:48:19;11.00;87.50
64855;DHT22;51321;50.428;8.378;2023-04-25T15:50:59;11.10;87.90
64855;DHT22;51321;50.428;8.378;2023-04-25T15:53:41;11.20;90.00
64855;DHT22;51321;50.428;8.378;2023-04-25T15:56:24;11.30;88.70
64855;DHT22;51321;50.428;8.378;2023-04-25T15:59:06;11.50;86.40
64855;DHT22;51321;50.428;8.378;2023-04-25T16:01:46;11.60;83.30
64855;DHT22;51321;50.428;8.378;2023-04-25T16:04:27;11.70;85.70
64855;DHT22;51321;50.428;8.378;2023-04-25T16:07:13;11.70;84.80
64855;DHT22;51321;50.428;8.378;2023-04-25T16:09:55;11.70;85.50
64855;DHT22;51321;50.428;8.378;2023-04-25T16:12:35;11.60;84.70
64855;DHT22;51321;50.428;8.378;2023-04-25T16:15:15;11.60;83.90
64855;DHT22;51321;50.428;8.378;2023-04-25T16:17:56;11.80;81.90
64855;DHT22;51321;50.428;8.378;2023-04-25T16:20:37;11.70;81.10
64855;DHT22;51321;50.428;8.378;2023-04-25T16:23:17;11.70;85.20
64855;DHT22;51321;50.428;8.378;2023-04-25T16:25:59;11.80;81.90
64855;DHT22;51321;50.428;8.378;2023-04-25T16:28:39;11.90;80.70
64855;DHT22;51321;50.428;8.378;2023-04-25T16:31:20;11.90;80.50
64855;DHT22;51321;50.428;8.378;2023-04-25T16:34:00;12.00;81.60
64855;DHT22;51321;50.428;8.378;2023-04-25T16:36:41;11.90;82.50
64855;DHT22;51321;50.428;8.378;2023-04-25T16:39:21;11.80;82.10
64855;DHT22;51321;50.428;8.378;2023-04-25T16:42:04;11.70;82.00
64855;DHT22;51321;50.428;8.378;2023-04-25T16:44:44;11.60;81.00
64855;DHT22;51321;50.428;8.378;2023-04-25T16:47:25;11.30;82.00
64855;DHT22;51321;50.428;8.378;2023-04-25T16:50:05;11.20;83.00
64855;DHT22;51321;50.428;8.378;2023-04-25T16:52:46;11.20;83.00
64855;DHT22;51321;50.428;8.378;2023-04-25T16:55:26;11.20;82.90
64855;DHT22;51321;50.428;8.378;2023-04-25T16:58:08;11.30;81.50
64855;DHT22;51321;50.428;8.378;2023-04-25T17:00:50;11.20;84.90
64855;DHT22;51321;50.428;8.378;2023-04-25T17:03:31;11.20;81.30
64855;DHT22;51321;50.428;8.378;2023-04-25T17:06:12;11.10;80.70
64855;DHT22;51321;50.428;8.378;2023-04-25T17:08:52;11.00;80.90
64855;DHT22;51321;50.428;8.378;2023-04-25T17:11:33;10.90;85.00
64855;DHT22;51321;50.428;8.378;2023-04-25T17:14:15;10.80;82.60
64855;DHT22;51321;50.428;8.378;2023-04-25T17:16:55;10.70;81.80
64855;DHT22;51321;50.428;8.378;2023-04-25T17:19:36;10.60;83.00
64855;DHT22;51321;50.428;8.378;2023-04-25T17:22:16;10.40;86.50